Time;durP1;ratioP1;P1;durP2;ratioP2;P2;SDS_P1;SDS_P2;PMS_P1;PMS_P2;Temp;Humidity;BMP_temperature;BMP_pressure;BME280_temperature;BME280_humidity;BME280_pressure;Samples;Min_cycle;Max_cycle;Signal;HPM_P1;HPM_P2
2022/09/13 00:00:40;;;;;;;16.47;3.37;;;15.00;94.90;;;;;;5028998;28;20484;-64
2022/09/13 00:03:08;;;;;;;23.20;3.87;;;;;;;;;;5023070;28;20567;-64
2022/09/13 00:05:36;;;;;;;9.27;3.03;;;14.70;96.00;;;;;;5028648;28;20883;-64
2022/09/13 00:08:04;;;;;;;6.17;2.90;;;14.70;96.20;;;;;;5025539;28;20476;-64
2022/09/13 00:10:31;;;;;;;13.93;3.63;;;;;;;;;;5030104;28;21068;-65
2022/09/13 00:12:58;;;;;;;14.77;3.50;;;14.80;95.40;;;;;;5023232;28;20533;-64
2022/09/13 00:15:27;;;;;;;11.13;2.33;;;14.80;95.40;;;;;;5023737;28;20506;-64
2022/09/13 00:17:54;;;;;;;8.03;3.30;;;14.80;95.60;;;;;;5028908;28;20479;-65
2022/09/13 00:20:21;;;;;;;9.57;2.97;;;;;;;;;;5029793;28;20954;-66
2022/09/13 00:22:48;;;;;;;9.93;3.30;;;;;;;;;;5030029;28;20868;-64
2022/09/13 00:25:14;;;;;;;10.60;3.07;;;14.70;95.90;;;;;;5026251;28;20476;-64
2022/09/13 00:27:43;;;;;;;15.97;2.83;;;14.70;95.60;;;;;;5025867;28;20492;-64
2022/09/13 00:30:11;;;;;;;11.43;3.37;;;;;;;;;;5024076;28;20483;-64
2022/09/13 00:32:39;;;;;;;11.23;2.70;;;14.60;95.30;;;;;;5029586;28;20545;-63
2022/09/13 00:35:07;;;;;;;8.30;3.00;;;14.50;95.50;;;;;;5031525;28;20478;-65
2022/09/13 00:37:34;;;;;;;17.40;3.67;;;14.40;95.60;;;;;;5030073;28;20490;-64
2022/09/13 00:40:01;;;;;;;7.97;3.37;;;;;;;;;;5030193;28;20917;-63
2022/09/13 00:42:31;;;;;;;10.53;2.90;;;14.10;96.80;;;;;;5026825;28;20575;-64
2022/09/13 00:44:59;;;;;;;14.30;3.80;;;13.90;98.10;;;;;;5032319;28;22751;-64
2022/09/13 00:47:32;;;;;;;14.80;3.00;;;14.00;98.50;;;;;;5024729;28;20474;-64
2022/09/13 00:50:06;;;;;;;9.50;2.93;;;14.00;97.80;;;;;;5028383;28;20484;-64
2022/09/13 00:52:36;;;;;;;7.40;2.83;;;14.10;97.40;;;;;;5017747;28;20488;-65
2022/09/13 00:55:06;;;;;;;4.33;2.77;;;14.20;97.00;;;;;;5017247;28;20477;-64
2022/09/13 00:57:35;;;;;;;19.90;3.53;;;14.20;96.90;;;;;;5020333;28;20551;-64
2022/09/13 01:00:10;;;;;;;7.47;2.87;;;14.30;96.60;;;;;;5026300;28;20549;-64
2022/09/13 01:02:38;;;;;;;11.87;3.03;;;14.20;96.50;;;;;;5044301;28;20499;-66
2022/09/13 01:05:08;;;;;;;15.00;3.40;;;;;;;;;;5035166;28;20717;-65
2022/09/13 01:07:35;;;;;;;16.80;2.90;;;;;;;;;;5020666;28;20680;-64
2022/09/13 01:10:05;;;;;;;5.63;2.80;;;14.30;96.60;;;;;;5040920;28;20491;-66
2022/09/13 01:12:36;;;;;;;6.83;2.73;;;;;;;;;;5047439;28;21250;-65
2022/09/13 01:15:05;;;;;;;10.43;3.00;;;;;;;;;;5034767;28;20596;-64
2022/09/13 01:17:33;;;;;;;16.57;3.60;;;14.10;96.00;;;;;;5008984;28;20488;-66
2022/09/13 01:20:01;;;;;;;8.83;2.90;;;;;;;;;;5028780;28;20491;-66
2022/09/13 01:22:56;;;;;;;5.23;2.37;;;14.10;96.10;;;;;;5030890;28;20498;-65
2022/09/13 01:26:05;;;;;;;6.80;2.77;;;14.10;95.90;;;;;;5028156;28;20483;-64
2022/09/13 01:28:38;;;;;;;8.23;2.80;;;;;;;;;;5049054;28;20460;-64
2022/09/13 01:31:08;;;;;;;7.40;2.40;;;;;;;;;;5017214;28;20483;-65
2022/09/13 01:33:51;;;;;;;7.87;3.00;;;14.10;95.60;;;;;;5014698;28;20467;-65
2022/09/13 01:36:36;;;;;;;7.80;2.10;;;14.10;95.70;;;;;;4983995;28;21232;-64
2022/09/13 01:39:05;;;;;;;8.57;2.97;;;14.10;95.30;;;;;;4990756;28;20488;-64
2022/09/13 01:41:42;;;;;;;6.50;2.60;;;;;;;;;;4991902;28;20488;-65
2022/09/13 01:44:18;;;;;;;12.33;3.70;;;14.10;96.10;;;;;;4990006;28;20495;-63
2022/09/13 01:46:51;;;;;;;6.60;2.27;;;14.00;96.20;;;;;;4991128;28;21067;-64
2022/09/13 01:49:24;;;;;;;9.80;3.40;;;14.10;96.60;;;;;;4991619;28;20670;-64
2022/09/13 01:51:59;;;;;;;17.13;3.10;;;14.00;96.60;;;;;;4993690;28;21145;-64
2022/09/13 01:54:32;;;;;;;13.70;2.70;;;14.00;96.50;;;;;;4985838;28;20798;-65
2022/09/13 01:57:02;;;;;;;10.70;2.50;;;;;;;;;;4992220;28;20499;-65
2022/09/13 01:59:38;;;;;;;11.90;2.80;;;13.90;96.40;;;;;;4999779;28;20500;-65
2022/09/13 02:02:08;;;;;;;8.50;3.40;;;;;;;;;;4993888;28;20498;-65
2022/09/13 02:04:38;;;;;;;8.80;2.87;;;;;;;;;;4999962;28;20890;-65
2022/09/13 02:07:09;;;;;;;12.60;2.90;;;13.90;96.40;;;;;;4993925;28;21064;-65
2022/09/13 02:09:40;;;;;;;8.60;2.30;;;13.90;96.20;;;;;;4982215;28;20489;-66
2022/09/13 02:12:14;;;;;;;13.47;2.40;;;13.80;96.10;;;;;;4998228;28;20755;-64
2022/09/13 02:14:42;;;;;;;7.53;2.57;;;;;;;;;;4988840;28;20913;-65
2022/09/13 02:17:13;;;;;;;13.70;3.07;;;;;;;;;;4993837;28;20520;-65
2022/09/13 02:19:42;;;;;;;22.83;3.57;;;;;;;;;;4991110;28;20485;-64
2022/09/13 02:22:14;;;;;;;11.77;2.50;;;13.80;97.20;;;;;;4996205;28;20563;-65
2022/09/13 02:24:42;;;;;;;9.10;2.70;;;;;;;;;;4999298;28;20946;-64
2022/09/13 02:27:13;;;;;;;5.90;2.20;;;13.90;96.80;;;;;;4999447;28;21382;-64
2022/09/13 02:29:47;;;;;;;10.63;2.40;;;13.90;96.80;;;;;;4996807;28;20511;-66
2022/09/13 02:32:20;;;;;;;29.00;3.60;;;14.00;96.80;;;;;;4997841;28;20485;-65
2022/09/13 02:34:51;;;;;;;18.10;3.30;;;13.90;97.30;;;;;;5017697;28;21323;-66
2022/09/13 02:37:19;;;;;;;11.80;3.13;;;13.80;97.90;;;;;;5012035;28;20519;-66
2022/09/13 02:39:50;;;;;;;11.33;2.70;;;13.90;97.50;;;;;;4996327;28;20504;-65
2022/09/13 02:42:21;;;;;;;11.73;3.10;;;13.90;97.40;;;;;;4991385;28;20768;-66
2022/09/13 02:44:52;;;;;;;19.40;3.00;;;14.00;97.70;;;;;;5010666;28;21554;-66
2022/09/13 02:47:41;;;;;;;12.33;2.87;;;14.00;97.90;;;;;;4994871;28;21316;-64
2022/09/13 02:50:19;;;;;;;5.40;3.30;;;14.10;98.00;;;;;;4993858;28;20500;-66
2022/09/13 02:52:50;;;;;;;8.77;3.23;;;14.10;97.50;;;;;;4996511;28;21327;-66
2022/09/13 02:55:22;;;;;;;19.60;3.93;;;14.20;97.60;;;;;;4999592;28;20769;-65
2022/09/13 02:57:59;;;;;;;12.73;3.40;;;14.20;97.80;;;;;;4993920;28;20481;-64
2022/09/13 03:00:26;;;;;;;28.23;4.40;;;14.10;98.10;;;;;;4984220;28;20490;-64
2022/09/13 03:02:58;;;;;;;7.60;3.37;;;14.20;98.10;;;;;;4997518;28;20499;-65
2022/09/13 03:05:25;;;;;;;11.30;3.20;;;;;;;;;;4993393;28;21175;-65
2022/09/13 03:07:53;;;;;;;17.87;4.47;;;14.20;98.30;;;;;;4997971;28;20906;-66
2022/09/13 03:10:22;;;;;;;12.27;3.60;;;14.20;98.20;;;;;;4995474;28;21512;-64
2022/09/13 03:13:04;;;;;;;12.47;3.27;;;14.20;98.20;;;;;;4995776;28;20513;-66
2022/09/13 03:15:38;;;;;;;13.67;3.43;;;;;;;;;;4996233;28;20481;-66
2022/09/13 03:18:12;;;;;;;14.87;3.97;;;;;;;;;;4996057;28;20505;-64
2022/09/13 03:20:47;;;;;;;9.13;3.30;;;14.40;97.50;;;;;;4996488;28;20491;-64
2022/09/13 03:23:32;;;;;;;17.27;3.90;;;;;;;;;;4995664;28;20488;-66
2022/09/13 03:26:22;;;;;;;8.40;3.33;;;14.20;97.80;;;;;;4987601;28;21029;-65
2022/09/13 03:29:01;;;;;;;16.30;3.00;;;14.20;97.50;;;;;;4991731;28;20482;-64
2022/09/13 03:31:33;;;;;;;13.47;3.77;;;14.20;97.40;;;;;;4989202;28;20494;-66
2022/09/13 03:34:09;;;;;;;17.03;3.93;;;14.20;97.70;;;;;;5000913;28;20885;-66
2022/09/13 03:36:38;;;;;;;9.20;3.40;;;;;;;;;;4997135;28;20495;-65
2022/09/13 03:39:13;;;;;;;6.63;3.53;;;14.00;98.60;;;;;;4996153;28;20492;-66
2022/09/13 03:41:46;;;;;;;10.33;3.93;;;13.80;99.20;;;;;;4997997;28;20866;-64
2022/09/13 03:44:16;;;;;;;9.83;3.23;;;;;;;;;;4998091;28;20500;-64
2022/09/13 03:46:45;;;;;;;17.33;4.23;;;13.80;99.30;;;;;;4994799;28;21277;-64
2022/09/13 03:49:15;;;;;;;5.90;2.93;;;;;;;;;;4994927;28;20496;-65
2022/09/13 03:51:45;;;;;;;7.13;3.13;;;;;;;;;;4994274;28;20493;-66
2022/09/13 03:54:19;;;;;;;15.90;3.87;;;13.90;98.80;;;;;;4997469;28;20494;-64
2022/09/13 03:57:05;;;;;;;6.73;3.00;;;13.80;99.40;;;;;;4996709;28;20497;-66
2022/09/13 03:59:32;;;;;;;9.70;3.20;;;;;;;;;;4980026;28;20511;-64
2022/09/13 04:01:59;;;;;;;8.43;3.57;;;13.60;99.90;;;;;;4997147;28;21807;-64
2022/09/13 04:04:27;;;;;;;15.30;4.17;;;13.70;99.90;;;;;;4995028;28;20493;-67
2022/09/13 04:06:55;;;;;;;16.03;3.90;;;13.70;99.90;;;;;;4991816;28;21087;-65
2022/09/13 04:09:22;;;;;;;9.73;3.80;;;;;;;;;;4996806;28;20484;-64
2022/09/13 04:11:49;;;;;;;8.83;3.60;;;13.70;99.90;;;;;;5001665;28;20493;-66
2022/09/13 04:14:16;;;;;;;9.73;3.90;;;13.60;99.90;;;;;;4994596;28;20497;-64
2022/09/13 04:16:43;;;;;;;9.33;3.10;;;13.60;99.90;;;;;;4994532;28;20489;-67
2022/09/13 04:19:10;;;;;;;12.30;3.67;;;13.60;99.90;;;;;;4994916;28;20996;-66
2022/09/13 04:21:38;;;;;;;7.23;3.50;;;13.60;99.90;;;;;;4986840;28;20499;-66
2022/09/13 04:24:05;;;;;;;16.47;3.77;;;;;;;;;;4995705;28;21142;-64
2022/09/13 04:26:33;;;;;;;20.97;4.43;;;;;;;;;;4996168;28;20535;-66
2022/09/13 04:29:00;;;;;;;11.90;3.43;;;13.70;99.90;;;;;;4996325;28;20488;-65
2022/09/13 04:31:27;;;;;;;12.03;3.57;;;13.80;99.90;;;;;;4989399;28;21206;-65
2022/09/13 04:33:53;;;;;;;32.50;4.00;;;13.90;99.90;;;;;;5009149;28;20930;-66
2022/09/13 04:36:21;;;;;;;12.03;3.40;;;14.00;99.90;;;;;;4991015;28;20749;-63
2022/09/13 04:38:49;;;;;;;12.53;3.63;;;13.90;99.90;;;;;;4986979;28;20521;-64
2022/09/13 04:41:16;;;;;;;15.03;3.60;;;13.90;99.90;;;;;;4988572;28;20569;-66
2022/09/13 04:43:43;;;;;;;9.63;3.83;;;13.90;99.90;;;;;;4990457;28;21017;-65
2022/09/13 04:46:09;;;;;;;8.60;3.33;;;14.00;99.90;;;;;;4985018;28;20507;-65
2022/09/13 04:48:36;;;;;;;12.20;3.43;;;14.10;99.90;;;;;;4982782;28;21021;-67
2022/09/13 04:51:03;;;;;;;8.27;3.67;;;14.20;99.60;;;;;;5004947;28;20657;-66
2022/09/13 04:53:30;;;;;;;11.47;2.97;;;14.20;99.40;;;;;;4992097;28;20520;-65
2022/09/13 04:56:01;;;;;;;27.87;4.03;;;14.20;99.20;;;;;;4986247;28;20492;-66
2022/09/13 04:58:28;;;;;;;14.87;4.17;;;;;;;;;;5000256;28;21079;-65
2022/09/13 05:01:01;;;;;;;9.37;3.23;;;14.30;99.20;;;;;;4993061;28;20646;-66
2022/09/13 05:03:29;;;;;;;7.33;2.23;;;14.30;99.70;;;;;;4996935;28;20641;-66
2022/09/13 05:06:01;;;;;;;7.20;2.93;;;;;;;;;;4986627;28;20526;-66
2022/09/13 05:08:28;;;;;;;19.37;4.70;;;;;;;;;;4996461;28;20952;-66
2022/09/13 05:10:55;;;;;;;17.27;3.80;;;;;;;;;;4994373;28;20927;-64
2022/09/13 05:13:23;;;;;;;15.10;3.17;;;14.10;99.90;;;;;;4989086;28;20499;-65
2022/09/13 05:15:50;;;;;;;14.53;3.63;;;14.20;99.90;;;;;;4999833;28;20497;-65
2022/09/13 05:18:17;;;;;;;9.63;5.17;;;14.30;99.90;;;;;;4993269;28;21322;-66
2022/09/13 05:20:43;;;;;;;7.20;3.37;;;14.30;99.90;;;;;;4996952;28;20849;-66
2022/09/13 05:23:10;;;;;;;10.30;3.77;;;14.20;99.90;;;;;;4994028;28;20497;-65
2022/09/13 05:25:37;;;;;;;6.60;3.00;;;14.20;99.90;;;;;;4996324;28;20579;-65
2022/09/13 05:28:03;;;;;;;5.80;2.80;;;14.10;99.90;;;;;;4988284;28;20492;-66
2022/09/13 05:30:31;;;;;;;16.07;3.80;;;14.00;99.90;;;;;;4985837;28;21323;-66
2022/09/13 05:32:58;;;;;;;9.60;3.13;;;;;;;;;;4996178;28;20489;-64
2022/09/13 05:35:26;;;;;;;8.43;3.00;;;;;;;;;;4997109;28;20493;-67
2022/09/13 05:37:53;;;;;;;9.30;3.60;;;;;;;;;;4994757;28;20793;-64
2022/09/13 05:40:20;;;;;;;7.77;3.77;;;13.80;99.90;;;;;;4995414;28;20508;-66
2022/09/13 05:42:46;;;;;;;9.00;3.53;;;14.00;99.90;;;;;;4997377;28;20492;-66
2022/09/13 05:45:14;;;;;;;9.03;4.00;;;14.00;99.90;;;;;;4996314;28;20492;-66
2022/09/13 05:47:42;;;;;;;10.40;4.10;;;14.20;99.90;;;;;;4992384;28;20491;-63
2022/09/13 05:50:10;;;;;;;20.60;4.07;;;14.30;99.90;;;;;;4994903;28;20488;-65
2022/09/13 05:52:37;;;;;;;8.53;3.63;;;14.40;99.90;;;;;;4993901;28;21989;-65
2022/09/13 05:55:04;;;;;;;12.10;3.93;;;14.60;99.90;;;;;;4988411;28;20493;-64
2022/09/13 05:57:31;;;;;;;16.83;5.30;;;14.80;99.90;;;;;;4989189;28;20912;-67
2022/09/13 05:59:57;;;;;;;13.00;3.97;;;14.90;99.90;;;;;;4985120;28;20517;-65
2022/09/13 06:02:24;;;;;;;16.17;4.33;;;14.90;99.90;;;;;;4993640;28;20493;-66
2022/09/13 06:04:53;;;;;;;11.00;5.00;;;;;;;;;;4995855;28;20487;-66
2022/09/13 06:07:19;;;;;;;11.47;4.20;;;15.00;99.90;;;;;;4993404;28;21036;-66
2022/09/13 06:09:46;;;;;;;8.73;4.63;;;15.00;99.90;;;;;;4994560;28;20994;-67
2022/09/13 06:12:13;;;;;;;10.60;4.07;;;15.10;99.90;;;;;;4993948;28;20902;-67
2022/09/13 06:14:39;;;;;;;8.90;4.20;;;15.20;99.90;;;;;;4996411;28;20504;-65
2022/09/13 06:17:06;;;;;;;11.20;5.23;;;15.40;99.90;;;;;;4994103;28;20726;-66
2022/09/13 06:19:34;;;;;;;11.40;4.47;;;15.70;99.90;;;;;;4991060;28;20531;-66
2022/09/13 06:22:02;;;;;;;15.33;4.30;;;;;;;;;;4992867;28;20493;-66
2022/09/13 06:24:29;;;;;;;14.47;4.80;;;15.80;99.90;;;;;;4991399;28;21056;-66
2022/09/13 06:26:56;;;;;;;10.10;4.80;;;15.80;99.90;;;;;;4987200;28;20575;-67
2022/09/13 06:29:23;;;;;;;12.43;5.00;;;16.00;99.90;;;;;;4992616;28;20492;-64
2022/09/13 06:31:49;;;;;;;10.63;4.40;;;16.20;99.90;;;;;;4991062;28;21033;-64
2022/09/13 06:34:16;;;;;;;10.30;4.53;;;16.40;99.90;;;;;;4996040;28;20488;-66
2022/09/13 06:36:43;;;;;;;11.80;4.40;;;16.50;99.90;;;;;;4986053;28;20794;-66
2022/09/13 06:39:11;;;;;;;12.80;4.67;;;16.60;99.90;;;;;;4996026;28;20465;-65
2022/09/13 06:41:38;;;;;;;10.87;4.03;;;16.80;99.90;;;;;;5001912;28;20484;-66
2022/09/13 06:44:05;;;;;;;24.07;5.17;;;;;;;;;;4994089;28;21044;-66
2022/09/13 06:46:34;;;;;;;10.10;5.00;;;17.00;99.90;;;;;;4992478;28;20491;-65
2022/09/13 06:49:02;;;;;;;10.87;5.53;;;;;;;;;;4991214;28;20885;-65
2022/09/13 06:51:29;;;;;;;19.70;5.83;;;17.60;99.90;;;;;;4991754;28;20496;-66
2022/09/13 06:53:56;;;;;;;12.20;5.67;;;18.70;99.90;;;;;;4992178;28;20493;-65
2022/09/13 06:56:26;;;;;;;10.67;4.80;;;20.00;99.90;;;;;;4994432;28;20501;-67
2022/09/13 06:58:56;;;;;;;16.03;4.70;;;21.00;97.30;;;;;;4989853;28;21223;-65
2022/09/13 07:01:26;;;;;;;11.63;4.70;;;;;;;;;;4994504;28;20568;-66
2022/09/13 07:03:54;;;;;;;9.07;4.30;;;;;;;;;;4996264;28;20500;-65
2022/09/13 07:06:25;;;;;;;16.57;4.33;;;21.60;95.70;;;;;;4993037;28;20879;-66
2022/09/13 07:08:53;;;;;;;9.60;4.30;;;21.70;95.00;;;;;;4995914;28;20535;-66
2022/09/13 07:11:21;;;;;;;14.20;4.60;;;;;;;;;;5000211;28;20496;-64
2022/09/13 07:13:50;;;;;;;12.53;4.47;;;21.50;94.70;;;;;;4997377;28;20493;-66
2022/09/13 07:16:17;;;;;;;12.63;4.30;;;21.30;94.40;;;;;;5020551;28;21242;-65
2022/09/13 07:18:44;;;;;;;11.53;4.87;;;21.00;94.30;;;;;;5018398;28;20735;-66
2022/09/13 07:21:12;;;;;;;6.73;3.83;;;20.80;94.70;;;;;;5019190;28;20514;-67
2022/09/13 07:23:40;;;;;;;11.13;4.70;;;20.40;95.00;;;;;;5019970;28;20497;-67
2022/09/13 07:26:07;;;;;;;15.13;5.03;;;20.30;95.60;;;;;;5005057;28;20536;-65
2022/09/13 07:28:36;;;;;;;16.20;4.67;;;20.10;95.80;;;;;;4989062;28;20482;-66
2022/09/13 07:31:09;;;;;;;8.80;4.17;;;20.00;96.00;;;;;;5000066;28;20538;-68
2022/09/13 07:33:36;;;;;;;14.30;5.40;;;20.10;96.50;;;;;;5007553;28;20488;-64
2022/09/13 07:36:05;;;;;;;9.30;4.60;;;20.20;96.20;;;;;;5001614;28;20486;-68
2022/09/13 07:38:33;;;;;;;11.30;4.57;;;;;;;;;;4986806;28;20531;-66
2022/09/13 07:41:00;;;;;;;9.73;4.87;;;20.30;95.80;;;;;;4978557;28;20491;-65
2022/09/13 07:43:28;;;;;;;10.30;4.73;;;20.30;96.10;;;;;;4997167;28;20844;-67
2022/09/13 07:45:58;;;;;;;14.57;5.47;;;;;;;;;;4989028;28;21057;-69
2022/09/13 07:48:28;;;;;;;8.17;4.33;;;;;;;;;;4990159;28;20483;-68
2022/09/13 07:51:00;;;;;;;16.97;5.10;;;20.80;97.00;;;;;;5006791;28;21518;-66
2022/09/13 07:53:27;;;;;;;13.33;5.40;;;21.10;96.60;;;;;;5003174;28;21075;-65
2022/09/13 07:55:53;;;;;;;9.10;4.20;;;21.40;96.10;;;;;;4998982;28;20492;-67
2022/09/13 07:58:20;;;;;;;13.93;4.30;;;21.60;95.50;;;;;;4979626;28;20966;-64
2022/09/13 08:00:47;;;;;;;13.53;5.27;;;21.90;96.70;;;;;;5003230;28;20492;-65
2022/09/13 08:03:14;;;;;;;8.10;4.70;;;22.40;96.60;;;;;;4994108;28;20500;-64
2022/09/13 08:05:42;;;;;;;14.70;4.90;;;;;;;;;;5007856;28;20502;-65
2022/09/13 08:08:09;;;;;;;16.17;5.37;;;22.90;94.80;;;;;;4999686;28;20624;-64
2022/09/13 08:10:36;;;;;;;11.30;4.87;;;22.90;94.30;;;;;;5004725;28;20879;-68
2022/09/13 08:13:02;;;;;;;10.13;4.80;;;22.90;94.60;;;;;;5005538;28;20511;-67
2022/09/13 08:15:29;;;;;;;22.70;4.93;;;22.90;94.70;;;;;;5001678;28;20489;-68
2022/09/13 08:17:56;;;;;;;12.60;4.70;;;22.90;94.10;;;;;;5002320;28;20895;-66
2022/09/13 08:20:22;;;;;;;11.93;5.37;;;23.00;94.60;;;;;;5004365;28;20515;-65
2022/09/13 08:22:50;;;;;;;13.40;4.90;;;23.00;94.30;;;;;;5004652;28;20485;-65
2022/09/13 08:25:17;;;;;;;17.20;5.50;;;23.00;94.60;;;;;;5000842;28;20821;-65
2022/09/13 08:27:44;;;;;;;10.67;5.40;;;23.00;94.50;;;;;;4997423;28;20492;-65
2022/09/13 08:30:11;;;;;;;18.00;5.23;;;;;;;;;;4986537;28;20677;-68
2022/09/13 08:32:39;;;;;;;13.67;5.20;;;;;;;;;;4982019;28;20769;-66
2022/09/13 08:35:06;;;;;;;13.10;5.77;;;;;;;;;;4996263;28;20485;-67
2022/09/13 08:37:34;;;;;;;16.53;5.00;;;;;;;;;;4997195;28;20496;-65
2022/09/13 08:40:02;;;;;;;10.93;4.87;;;;;;;;;;4990661;28;20922;-65
2022/09/13 08:42:45;;;;;;;10.83;5.00;;;22.80;94.40;;;;;;5017653;28;20496;-67
2022/09/13 08:45:12;;;;;;;8.77;4.73;;;;;;;;;;5007236;28;20461;-69
2022/09/13 08:47:41;;;;;;;11.03;5.53;;;;;;;;;;5018169;28;20496;-67
2022/09/13 08:50:16;;;;;;;20.87;5.83;;;22.80;94.00;;;;;;5017771;28;20536;-67
2022/09/13 08:52:50;;;;;;;14.47;5.13;;;22.90;94.10;;;;;;5018444;28;21106;-68
2022/09/13 08:55:25;;;;;;;32.37;5.60;;;;;;;;;;5023327;28;20812;-65
2022/09/13 08:57:55;;;;;;;13.30;5.40;;;;;;;;;;5020184;28;20488;-66
2022/09/13 09:00:26;;;;;;;11.70;4.47;;;;;;;;;;5005281;28;20845;-66
2022/09/13 09:03:01;;;;;;;9.20;4.60;;;23.20;94.60;;;;;;5018321;28;20488;-67
2022/09/13 09:05:30;;;;;;;6.80;4.17;;;23.30;94.40;;;;;;5020438;28;20486;-70
2022/09/13 09:08:00;;;;;;;26.67;5.53;;;23.50;94.40;;;;;;5009156;28;20523;-65
2022/09/13 09:10:31;;;;;;;14.83;5.13;;;23.70;94.20;;;;;;4998866;28;20503;-69
2022/09/13 09:13:02;;;;;;;9.23;5.27;;;23.80;94.30;;;;;;4993096;28;20491;-64
2022/09/13 09:15:34;;;;;;;13.47;4.17;;;23.90;93.70;;;;;;4991302;28;20977;-69
2022/09/13 09:18:07;;;;;;;8.93;4.40;;;24.00;94.00;;;;;;4991038;28;20652;-65
2022/09/13 09:20:37;;;;;;;14.33;5.63;;;24.10;93.80;;;;;;4990381;28;20578;-67
2022/09/13 09:23:08;;;;;;;14.17;4.43;;;24.30;93.20;;;;;;4993707;28;20647;-65
2022/09/13 09:25:36;;;;;;;15.10;4.13;;;24.40;93.60;;;;;;4990139;28;20858;-67
2022/09/13 09:28:12;;;;;;;11.67;4.80;;;24.60;93.30;;;;;;4992979;28;21954;-68
2022/09/13 09:30:41;;;;;;;8.57;3.93;;;;;;;;;;4991284;28;20495;-68
2022/09/13 09:33:22;;;;;;;14.80;4.47;;;24.70;92.50;;;;;;4987032;28;20461;-65
2022/09/13 09:35:56;;;;;;;13.97;4.30;;;;;;;;;;5002461;28;20463;-69
2022/09/13 09:38:38;;;;;;;8.43;3.60;;;25.00;92.90;;;;;;4989853;28;21279;-68
2022/09/13 09:41:10;;;;;;;14.57;4.20;;;;;;;;;;4994805;28;20572;-69
2022/09/13 09:43:43;;;;;;;7.63;3.60;;;25.30;92.50;;;;;;4994645;28;20514;-65
2022/09/13 09:46:11;;;;;;;13.63;3.80;;;25.50;92.80;;;;;;4995328;28;21039;-65
2022/09/13 09:48:42;;;;;;;11.57;3.77;;;;;;;;;;4994444;28;20492;-67
2022/09/13 09:51:11;;;;;;;17.47;5.07;;;25.60;91.80;;;;;;4990884;28;20806;-65
2022/09/13 09:53:42;;;;;;;13.07;3.87;;;25.60;92.10;;;;;;4991497;28;20563;-69
2022/09/13 09:56:19;;;;;;;11.43;4.07;;;;;;;;;;4992117;28;20473;-66
2022/09/13 09:58:46;;;;;;;7.20;3.77;;;25.50;91.40;;;;;;5017914;28;20495;-67
2022/09/13 10:01:22;;;;;;;6.57;3.80;;;25.50;91.10;;;;;;5017039;28;21496;-69
2022/09/13 10:03:51;;;;;;;11.37;3.97;;;25.60;91.90;;;;;;5018015;28;20591;-66
2022/09/13 10:06:21;;;;;;;9.60;4.27;;;25.70;91.80;;;;;;5024339;28;20488;-68
2022/09/13 10:09:01;;;;;;;34.87;5.40;;;25.80;91.20;;;;;;5020664;28;20617;-68
2022/09/13 10:11:45;;;;;;;15.00;4.53;;;25.80;91.40;;;;;;5010250;28;21103;-70
2022/09/13 10:14:38;;;;;;;20.77;4.80;;;25.80;90.90;;;;;;5013384;28;20870;-69
2022/09/13 10:17:18;;;;;;;12.63;4.47;;;25.90;91.30;;;;;;5021328;28;20720;-67
2022/09/13 10:19:56;;;;;;;16.10;4.03;;;;;;;;;;5004702;28;20519;-69
2022/09/13 10:22:23;;;;;;;8.23;3.40;;;26.10;91.30;;;;;;5007847;28;20522;-70
2022/09/13 10:24:50;;;;;;;6.23;3.60;;;26.20;91.60;;;;;;5013916;28;20623;-67
2022/09/13 10:27:25;;;;;;;10.63;3.30;;;26.30;91.90;;;;;;4996845;28;20647;-67
2022/09/13 10:29:58;;;;;;;11.00;4.00;;;26.40;91.00;;;;;;4995752;28;20671;-65
2022/09/13 10:32:25;;;;;;;14.30;4.23;;;26.50;91.00;;;;;;4983995;28;20468;-69
2022/09/13 10:34:53;;;;;;;6.07;3.20;;;26.60;91.30;;;;;;5000837;28;20468;-69
2022/09/13 10:37:21;;;;;;;13.30;4.03;;;;;;;;;;4994244;28;20649;-68
2022/09/13 10:40:00;;;;;;;8.33;3.40;;;26.80;91.20;;;;;;4997514;28;20616;-69
2022/09/13 10:42:29;;;;;;;23.33;4.30;;;27.00;91.10;;;;;;4996771;28;20557;-66
2022/09/13 10:44:59;;;;;;;5.07;3.33;;;27.10;90.20;;;;;;5016069;28;20583;-66
2022/09/13 10:47:32;;;;;;;6.17;3.50;;;27.20;90.50;;;;;;5015794;28;20468;-70
2022/09/13 10:50:10;;;;;;;3.30;2.80;;;27.50;91.30;;;;;;5012047;28;20555;-67
2022/09/13 10:52:43;;;;;;;3.50;3.20;;;27.70;89.90;;;;;;5006197;28;20966;-69
2022/09/13 10:55:29;;;;;;;10.60;3.50;;;27.90;89.30;;;;;;5015494;28;20486;-70
2022/09/13 10:58:14;;;;;;;5.60;3.83;;;27.90;87.70;;;;;;4996518;28;21028;-66
2022/09/13 11:01:01;;;;;;;4.17;2.90;;;27.90;87.70;;;;;;5004923;28;20462;-69
2022/09/13 11:03:42;;;;;;;14.43;3.40;;;28.00;87.70;;;;;;4987307;28;20826;-69
2022/09/13 11:06:19;;;;;;;4.70;2.87;;;28.10;87.50;;;;;;5004420;28;21071;-66
2022/09/13 11:08:52;;;;;;;9.43;2.83;;;;;;;;;;5001395;28;20478;-67
2022/09/13 11:11:24;;;;;;;6.73;1.97;;;28.10;80.70;;;;;;4965797;28;20986;-70
2022/09/13 11:14:08;;;;;;;5.90;2.30;;;27.80;78.40;;;;;;5015157;28;20518;-68
2022/09/13 11:16:46;;;;;;;2.77;2.00;;;27.70;82.20;;;;;;5010032;28;20490;-66
2022/09/13 11:19:46;;;;;;;10.13;2.57;;;27.90;83.50;;;;;;5020605;28;21091;-69
2022/09/13 11:22:26;;;;;;;3.30;2.10;;;28.10;84.00;;;;;;5015991;28;20470;-66
2022/09/13 11:25:03;;;;;;;8.90;3.33;;;28.20;82.00;;;;;;4975348;28;20602;-66
2022/09/13 11:27:32;;;;;;;9.10;2.60;;;;;;;;;;5013167;28;20821;-65
2022/09/13 11:30:10;;;;;;;4.57;2.40;;;28.30;84.10;;;;;;5006546;28;20926;-66
2022/09/13 11:33:04;;;;;;;5.73;2.10;;;28.40;83.00;;;;;;4999369;28;20632;-65
2022/09/13 11:35:43;;;;;;;3.37;1.53;;;;;;;;;;5022545;28;21406;-66
2022/09/13 11:38:26;;;;;;;11.00;2.00;;;28.70;77.40;;;;;;4975570;28;21597;-68
2022/09/13 11:40:58;;;;;;;7.73;1.17;;;;;;;;;;5018306;28;20497;-69
2022/09/13 11:43:42;;;;;;;11.23;1.93;;;28.50;70.30;;;;;;5016946;28;20470;-66
2022/09/13 11:46:16;;;;;;;3.50;2.30;;;;;;;;;;5001745;28;20868;-66
2022/09/13 11:48:49;;;;;;;8.43;2.67;;;;;;;;;;5001814;28;20487;-64
2022/09/13 11:51:25;;;;;;;3.03;2.10;;;29.00;77.50;;;;;;5008108;28;20564;-68
2022/09/13 11:54:02;;;;;;;9.63;2.50;;;;;;;;;;5012938;28;20488;-66
2022/09/13 11:56:33;;;;;;;4.70;1.73;;;29.30;75.50;;;;;;5012281;28;20494;-68
2022/09/13 11:59:10;;;;;;;9.27;2.43;;;29.30;74.60;;;;;;5016537;28;21146;-67
2022/09/13 12:01:42;;;;;;;5.27;2.67;;;29.30;74.90;;;;;;5022314;28;20841;-70
2022/09/13 12:04:12;;;;;;;6.90;2.30;;;;;;;;;;5019591;28;20733;-68
2022/09/13 12:06:42;;;;;;;3.00;2.00;;;29.20;72.90;;;;;;5020972;28;20595;-68
2022/09/13 12:09:15;;;;;;;4.93;2.10;;;29.50;75.00;;;;;;5018556;28;20492;-67
2022/09/13 12:11:45;;;;;;;8.83;1.90;;;29.70;75.40;;;;;;5022164;28;21485;-65
2022/09/13 12:14:15;;;;;;;4.27;1.70;;;30.10;76.70;;;;;;5016298;28;20830;-69
2022/09/13 12:16:48;;;;;;;1.70;1.10;;;30.40;74.30;;;;;;4994223;28;20465;-67
2022/09/13 12:19:20;;;;;;;1.90;1.30;;;30.50;70.50;;;;;;5006931;28;20879;-70
2022/09/13 12:21:49;;;;;;;3.40;1.37;;;30.60;72.50;;;;;;5019618;28;20465;-69
2022/09/13 12:24:19;;;;;;;2.73;1.63;;;30.80;71.70;;;;;;5020111;28;21124;-65
2022/09/13 12:26:52;;;;;;;2.10;1.30;;;30.90;70.80;;;;;;5021208;28;20487;-69
2022/09/13 12:29:24;;;;;;;2.20;1.43;;;30.90;66.60;;;;;;5019961;28;20490;-67
2022/09/13 12:31:55;;;;;;;2.10;1.20;;;30.70;68.40;;;;;;5019582;28;20473;-69
2022/09/13 12:34:27;;;;;;;1.90;1.60;;;30.60;69.50;;;;;;5018435;28;20498;-68
2022/09/13 12:44:24;;;;;;;3.30;1.20;;;31.00;67.20;;;;;;4993462;28;20500;-68
2022/09/13 12:47:39;;;;;;;2.70;1.43;;;31.30;69.40;;;;;;4985152;28;20889;-68
2022/09/13 12:53:57;;;;;;;2.20;1.40;;;31.60;67.40;;;;;;4935837;28;20614;-69
2022/09/13 13:00:02;;;;;;;3.07;1.70;;;31.30;70.00;;;;;;4983740;28;20572;-67
2022/09/13 13:02:34;;;;;;;1.80;1.20;;;31.50;70.80;;;;;;5013382;28;21516;-66
2022/09/13 13:05:04;;;;;;;1.80;1.00;;;31.40;67.30;;;;;;5017696;28;20476;-68
2022/09/13 13:07:36;;;;;;;2.20;1.60;;;31.00;64.10;;;;;;5014386;28;20622;-67
2022/09/13 13:10:05;;;;;;;3.97;1.53;;;30.80;65.40;;;;;;5016607;28;20469;-68
2022/09/13 13:12:34;;;;;;;3.73;1.43;;;30.70;65.70;;;;;;5020999;28;20491;-68
2022/09/13 13:15:01;;;;;;;2.20;1.60;;;30.70;66.70;;;;;;5012871;28;20488;-68
2022/09/13 13:17:46;;;;;;;1.80;1.20;;;30.90;68.90;;;;;;5008663;28;20835;-66
2022/09/13 13:20:45;;;;;;;2.47;1.93;;;30.70;64.90;;;;;;5014981;28;20495;-68
2022/09/13 13:23:18;;;;;;;12.10;2.63;;;30.30;66.40;;;;;;5014194;28;20926;-67
2022/09/13 13:26:01;;;;;;;1.73;1.13;;;30.00;66.20;;;;;;5016770;28;20480;-66
2022/09/13 13:29:15;;;;;;;8.80;1.80;;;29.80;67.20;;;;;;5013630;28;26119;-67
2022/09/13 13:32:06;;;;;;;2.77;1.20;;;30.00;71.40;;;;;;5013018;28;20498;-65
2022/09/13 13:34:40;;;;;;;9.30;1.67;;;30.00;66.30;;;;;;5012049;28;20596;-67
2022/09/13 13:37:26;;;;;;;2.00;1.20;;;29.90;66.40;;;;;;5017057;28;20494;-66
2022/09/13 13:40:22;;;;;;;2.20;1.27;;;29.80;68.70;;;;;;5010170;28;20457;-66
2022/09/13 13:42:50;;;;;;;1.83;1.30;;;30.00;70.00;;;;;;5014161;28;21075;-65